createdAt,value
2024-05-09T00:03:34.146Z,8.41
2024-05-09T00:08:36.017Z,8.30
2024-05-09T00:13:37.940Z,8.22
2024-05-09T00:18:39.821Z,8.14
2024-05-09T00:23:41.706Z,8.15
2024-05-09T00:28:43.560Z,8.12
2024-05-09T00:33:45.528Z,7.98
2024-05-09T00:38:47.713Z,8.05
2024-05-09T00:43:49.542Z,7.84
2024-05-09T00:48:51.521Z,7.83
2024-05-09T00:53:53.466Z,7.87
2024-05-09T00:58:55.677Z,7.81
2024-05-09T01:03:58.155Z,7.54
2024-05-09T01:09:00.227Z,7.71
2024-05-09T01:14:02.228Z,7.67
2024-05-09T01:19:04.736Z,7.72
2024-05-09T01:24:06.762Z,7.82
2024-05-09T01:29:08.598Z,7.64
2024-05-09T01:34:10.444Z,7.50
2024-05-09T01:39:12.267Z,7.49
2024-05-09T01:44:14.092Z,7.58
2024-05-09T01:49:16.088Z,7.41
2024-05-09T01:54:17.952Z,7.35
2024-05-09T01:59:20.130Z,7.17
2024-05-09T02:04:22.185Z,7.14
2024-05-09T02:09:24.169Z,6.99
2024-05-09T02:14:26.026Z,6.93
2024-05-09T02:19:28.064Z,6.95
2024-05-09T02:24:29.943Z,6.93
2024-05-09T02:29:31.810Z,6.76
2024-05-09T02:34:33.651Z,6.70
2024-05-09T02:39:35.466Z,6.61
2024-05-09T02:44:37.320Z,6.51
2024-05-09T02:49:39.201Z,6.37
2024-05-09T02:54:41.077Z,6.19
2024-05-09T02:59:43.572Z,6.24
2024-05-09T03:04:45.588Z,6.24
2024-05-09T03:09:47.711Z,6.24
2024-05-09T03:14:50.569Z,6.28
2024-05-09T03:19:52.477Z,6.14
2024-05-09T03:24:54.457Z,6.05
2024-05-09T03:29:56.227Z,6.00
2024-05-09T03:34:58.041Z,5.88
2024-05-09T03:39:59.903Z,5.83
2024-05-09T03:45:02.386Z,5.96
2024-05-09T03:50:05.832Z,6.00
2024-05-09T03:55:09.585Z,5.92
2024-05-09T04:00:18.194Z,6.15
2024-05-09T04:05:29.993Z,6.05
2024-05-09T04:10:34.194Z,6.15
2024-05-09T04:15:36.917Z,6.35
2024-05-09T04:20:40.787Z,6.79
2024-05-09T04:25:45.467Z,7.13
2024-05-09T04:30:47.713Z,7.56
2024-05-09T04:35:49.681Z,8.09
2024-05-09T04:40:51.542Z,8.52
2024-05-09T04:45:53.791Z,8.96
2024-05-09T04:50:55.608Z,7.89
2024-05-09T04:55:57.483Z,7.71
2024-05-09T05:00:59.427Z,8.22
2024-05-09T05:06:01.429Z,8.68
2024-05-09T05:11:03.541Z,7.83
2024-05-09T05:16:05.577Z,8.48
2024-05-09T05:21:07.355Z,9.01
2024-05-09T05:26:09.225Z,9.52
2024-05-09T05:31:11.134Z,11.20
2024-05-09T05:36:12.981Z,11.77
2024-05-09T05:41:14.860Z,11.19
2024-05-09T05:46:16.715Z,12.58
2024-05-09T05:51:18.691Z,12.67
2024-05-09T05:56:20.629Z,13.66
2024-05-09T06:01:22.951Z,14.34
2024-05-09T06:06:24.755Z,13.54
2024-05-09T06:11:26.587Z,14.24
2024-05-09T06:16:28.392Z,17.49
2024-05-09T06:21:30.241Z,17.05
2024-05-09T06:26:32.721Z,20.05
2024-05-09T06:31:44.484Z,17.13
2024-05-09T06:36:46.311Z,17.90
2024-05-09T06:41:48.104Z,18.68
2024-05-09T06:46:50.017Z,18.68
2024-05-09T06:51:51.835Z,18.34
2024-05-09T06:56:53.593Z,18.61
2024-05-09T07:01:55.381Z,21.64
2024-05-09T07:06:57.654Z,19.21
2024-05-09T07:11:59.566Z,18.26
2024-05-09T07:17:01.519Z,21.26
2024-05-09T07:22:03.669Z,21.97
2024-05-09T07:27:05.503Z,26.12
2024-05-09T07:32:09.113Z,24.84
2024-05-09T07:37:13.292Z,28.61
2024-05-09T07:42:15.099Z,27.28
2024-05-09T07:48:28.954Z,23.46
2024-05-09T07:53:33.934Z,30.01
2024-05-09T07:58:00.812Z,32.72
2024-05-09T08:03:02.655Z,34.57
2024-05-09T08:08:04.707Z,30.29
2024-05-09T08:13:06.566Z,28.85
2024-05-09T08:18:09.894Z,30.16
2024-05-09T08:23:11.831Z,29.13
2024-05-09T08:28:16.547Z,32.01
2024-05-09T08:33:18.617Z,31.33
2024-05-09T08:38:20.468Z,29.83
2024-05-09T08:43:24.523Z,26.82
2024-05-09T08:48:26.626Z,28.80
2024-05-09T08:53:28.696Z,28.73
2024-05-09T08:58:31.805Z,24.70
2024-05-09T09:03:36.842Z,23.53
2024-05-09T09:08:39.660Z,26.42
2024-05-09T09:13:41.506Z,25.19
2024-05-09T09:18:47.003Z,25.54
2024-05-09T09:23:48.962Z,25.38
2024-05-09T09:28:50.889Z,23.79
2024-05-09T09:33:53.750Z,22.37
2024-05-09T09:38:56.719Z,29.62
2024-05-09T09:43:59.553Z,30.40
2024-05-09T09:49:01.504Z,24.94
2024-05-09T09:54:05.982Z,22.85
2024-05-09T09:59:09.670Z,26.08
2024-05-09T10:04:16.015Z,31.21
2024-05-09T10:09:18.417Z,30.16
2024-05-09T10:14:21.121Z,26.54
2024-05-09T10:19:25.603Z,27.29
2024-05-09T10:24:27.503Z,26.29
2024-05-09T10:29:29.285Z,25.60
2024-05-09T10:34:34.754Z,27.46
2024-05-09T10:39:39.228Z,27.82
2024-05-09T10:44:42.577Z,25.73
2024-05-09T10:49:44.498Z,25.99
2024-05-09T10:54:52.192Z,25.93
2024-05-09T10:59:54.002Z,29.12
2024-05-09T11:04:55.955Z,26.54
2024-05-09T11:09:58.386Z,27.45
2024-05-09T11:15:00.218Z,28.10
2024-05-09T11:20:06.100Z,25.17
2024-05-09T11:25:12.221Z,28.07
2024-05-09T11:30:26.870Z,27.51
2024-05-09T11:35:34.487Z,28.65
2024-05-09T11:40:38.306Z,28.09
2024-05-09T11:45:40.252Z,28.63
2024-05-09T11:50:42.341Z,27.84
2024-05-09T11:55:44.226Z,24.17
2024-05-09T12:00:47.377Z,26.96
2024-05-09T12:05:49.492Z,28.64
2024-05-09T12:10:51.620Z,27.76
2024-05-09T12:15:54.249Z,27.99
2024-05-09T12:20:56.103Z,28.45
2024-05-09T12:25:57.972Z,26.30
2024-05-09T12:30:59.774Z,25.58
2024-05-09T12:36:01.620Z,25.59
2024-05-09T12:41:03.491Z,26.34
2024-05-09T12:46:05.417Z,26.29
2024-05-09T12:51:07.192Z,25.59
2024-05-09T12:56:09.559Z,23.40
2024-05-09T13:01:11.515Z,23.34
2024-05-09T13:06:13.484Z,23.16
2024-05-09T13:11:15.420Z,24.45
2024-05-09T13:16:17.426Z,24.55
2024-05-09T13:21:19.280Z,23.67
2024-05-09T13:26:21.123Z,23.09
2024-05-09T13:31:23.037Z,23.96
2024-05-09T13:36:24.974Z,22.66
2024-05-09T13:41:26.970Z,22.67
2024-05-09T13:46:28.924Z,22.52
2024-05-09T13:51:30.826Z,22.04
2024-05-09T13:56:32.689Z,21.20
2024-05-09T14:01:34.640Z,21.48
2024-05-09T14:06:36.984Z,21.52
2024-05-09T14:11:38.922Z,21.12
2024-05-09T14:16:42.005Z,20.88
2024-05-09T14:21:43.991Z,21.53
2024-05-09T14:26:45.896Z,21.85
2024-05-09T14:31:47.764Z,21.49
2024-05-09T14:36:49.677Z,21.16
2024-05-09T14:41:51.496Z,20.93
2024-05-09T14:46:53.320Z,20.56
2024-05-09T14:51:55.167Z,20.98
2024-05-09T14:56:58.049Z,21.60
2024-05-09T15:02:00.080Z,21.38
2024-05-09T15:07:02.122Z,20.81
2024-05-09T15:12:04.307Z,21.18
2024-05-09T15:17:06.214Z,21.04
2024-05-09T15:22:11.711Z,21.10
2024-05-09T15:27:13.933Z,21.01
2024-05-09T15:32:15.864Z,21.32
2024-05-09T15:37:18.018Z,21.54
2024-05-09T15:42:20.054Z,21.07
2024-05-09T15:47:22.152Z,20.93
2024-05-09T15:52:23.971Z,20.91
2024-05-09T15:57:25.831Z,20.82
2024-05-09T16:02:27.657Z,20.86
2024-05-09T16:07:29.571Z,20.76
2024-05-09T16:12:31.354Z,20.70
2024-05-09T16:17:33.306Z,20.35
2024-05-09T16:22:35.340Z,20.00
2024-05-09T16:27:38.179Z,19.91
2024-05-09T16:32:41.650Z,19.94
2024-05-09T16:37:43.758Z,20.04
2024-05-09T16:42:46.123Z,19.84
2024-05-09T16:47:48.116Z,19.94
2024-05-09T16:52:49.970Z,19.69
2024-05-09T16:57:52.237Z,19.85
2024-05-09T17:02:54.613Z,19.62
2024-05-09T17:07:56.862Z,19.41
2024-05-09T17:12:58.742Z,19.38
2024-05-09T17:18:01.620Z,19.18
2024-05-09T17:23:06.092Z,18.95
2024-05-09T17:28:09.609Z,18.98
2024-05-09T17:33:12.729Z,18.76
2024-05-09T17:38:15.121Z,18.69
2024-05-09T17:43:16.953Z,18.77
2024-05-09T17:48:19.328Z,18.78
2024-05-09T17:53:21.609Z,18.46
2024-05-09T17:58:23.529Z,18.26
2024-05-09T18:03:25.668Z,17.99
2024-05-09T18:08:27.584Z,17.81
2024-05-09T18:13:29.394Z,17.58
2024-05-09T18:18:31.399Z,17.05
2024-05-09T18:23:34.886Z,16.63
2024-05-09T18:28:36.696Z,16.35
2024-05-09T18:33:38.635Z,16.00
2024-05-09T18:38:40.542Z,15.81
2024-05-09T18:43:45.372Z,15.50
2024-05-09T18:48:50.483Z,15.18
2024-05-09T18:53:54.963Z,14.84
2024-05-09T18:58:56.754Z,14.62
2024-05-09T19:03:58.669Z,14.42
2024-05-09T19:09:00.515Z,14.31
2024-05-09T19:14:04.567Z,14.15
2024-05-09T19:19:06.586Z,14.05
2024-05-09T19:24:08.578Z,13.94
2024-05-09T19:29:10.384Z,13.73
2024-05-09T19:34:12.240Z,13.43
2024-05-09T19:39:14.196Z,13.29
2024-05-09T19:44:16.070Z,13.14
2024-05-09T19:49:17.935Z,12.99
2024-05-09T19:54:20.300Z,12.89
2024-05-09T19:59:22.097Z,12.76
2024-05-09T20:04:24.310Z,12.80
2024-05-09T20:09:26.210Z,12.65
2024-05-09T20:14:27.973Z,12.44
2024-05-09T20:19:29.882Z,12.38
2024-05-09T20:24:31.926Z,12.43
2024-05-09T20:29:33.737Z,12.28
2024-05-09T20:34:35.561Z,12.19
2024-05-09T20:39:37.396Z,12.08
2024-05-09T20:44:39.176Z,12.07
2024-05-09T20:49:40.997Z,11.74
2024-05-09T20:54:42.897Z,11.68
2024-05-09T20:59:44.690Z,11.68
2024-05-09T21:04:46.706Z,11.56
2024-05-09T21:09:48.584Z,11.37
2024-05-09T21:14:50.374Z,11.28
2024-05-09T21:19:52.310Z,11.11
2024-05-09T21:24:54.137Z,11.17
2024-05-09T21:29:55.980Z,11.00
2024-05-09T21:34:57.780Z,10.93
2024-05-09T21:40:01.093Z,10.85
2024-05-09T21:45:02.955Z,10.78
2024-05-09T21:50:07.667Z,10.76
2024-05-09T21:55:09.733Z,10.48
2024-05-09T22:00:28.019Z,10.60
2024-05-09T22:05:37.647Z,10.34
2024-05-09T22:10:39.628Z,10.22
2024-05-09T22:15:41.810Z,10.20
2024-05-09T22:20:45.620Z,10.21
2024-05-09T22:25:48.337Z,10.25
2024-05-09T22:30:50.744Z,10.29
2024-05-09T22:35:52.541Z,10.13
2024-05-09T22:40:54.413Z,9.91
2024-05-09T22:45:56.326Z,9.87
2024-05-09T22:50:58.155Z,9.83
2024-05-09T22:55:59.920Z,9.72
2024-05-09T23:01:01.858Z,9.66
2024-05-09T23:06:06.443Z,9.58
2024-05-09T23:11:08.326Z,9.44
2024-05-09T23:16:10.314Z,9.37
2024-05-09T23:21:12.167Z,9.32
2024-05-09T23:26:14.036Z,9.26
2024-05-09T23:31:15.842Z,9.23
2024-05-09T23:36:17.634Z,9.19
2024-05-09T23:41:19.411Z,9.02
2024-05-09T23:46:21.428Z,8.84
2024-05-09T23:51:23.258Z,8.81
2024-05-09T23:56:25.059Z,8.80
